Time;durP1;ratioP1;P1;durP2;ratioP2;P2;SDS_P1;SDS_P2;PMS_P1;PMS_P2;Temp;Humidity;BMP_temperature;BMP_pressure;BME280_temperature;BME280_humidity;BME280_pressure;Samples;Min_cycle;Max_cycle;Signal;HPM_P1;HPM_P2
2022/01/27 00:00:42;;;;;;;1.90;0.65;;;;;;;;;;4395701;32;20084;-54
2022/01/27 00:03:29;;;;;;;0.77;0.50;;;;;;;;;;4409096;32;20034;-54
2022/01/27 00:06:05;;;;;;;1.12;0.40;;;;;;;;;;4421645;32;20346;-55
2022/01/27 00:08:53;;;;;;;0.82;0.52;;;;;;;;;;4415046;32;20045;-52
2022/01/27 00:11:21;;;;;;;0.70;0.40;;;;;;;;;;4414996;32;20034;-52
2022/01/27 00:14:00;;;;;;;0.70;0.50;;;;;;;;;;4408013;32;20059;-54
2022/01/27 00:16:31;;;;;;;0.57;0.50;;;;;;;;;;4407244;32;20164;-53
2022/01/27 00:19:00;;;;;;;0.40;0.40;;;;;;;;;;4417092;32;20054;-52
2022/01/27 00:21:30;;;;;;;0.62;0.60;;;;;;;;;;4407656;32;20127;-52
2022/01/27 00:23:59;;;;;;;1.35;0.45;;;;;;;;;;4409775;32;20089;-55
2022/01/27 00:26:28;;;;;;;0.65;0.60;;;;;;;;;;4417495;32;20083;-54
2022/01/27 00:28:56;;;;;;;1.20;0.55;;;;;;;;;;4404611;32;20474;-53
2022/01/27 00:31:24;;;;;;;0.60;0.50;;;;;;;;;;4410659;32;20039;-52
2022/01/27 00:33:54;;;;;;;0.57;0.43;;;;;;;;;;4413189;32;20045;-53
2022/01/27 00:36:22;;;;;;;0.50;0.40;;;;;;;;;;4421055;32;20040;-54
2022/01/27 00:38:51;;;;;;;0.70;0.60;;;;;;;;;;4404351;32;20082;-54
2022/01/27 00:41:21;;;;;;;0.52;0.50;;;;;;;;;;4407576;32;20043;-54
2022/01/27 00:43:50;;;;;;;0.50;0.40;;;;;;;;;;4417211;32;20093;-53
2022/01/27 00:46:19;;;;;;;0.82;0.50;;;;;;;;;;4412024;32;20585;-52
2022/01/27 00:48:48;;;;;;;1.12;0.60;;;;;;;;;;4419256;32;20045;-53
2022/01/27 00:51:21;;;;;;;0.50;0.45;;;;;;;;;;4413705;32;20072;-55
2022/01/27 00:54:04;;;;;;;1.13;0.50;;;;;;;;;;4411184;32;20175;-51
2022/01/27 01:01:37;;;;;;;1.05;0.50;;;;;;;;;;4410314;32;20131;-55
2022/01/27 01:04:08;;;;;;;0.73;0.40;;;;;;;;;;4419427;32;20144;-52
2022/01/27 01:06:44;;;;;;;0.70;0.50;;;;;;;;;;4408385;32;20055;-53
2022/01/27 01:10:06;;;;;;;0.65;0.50;;;;;;;;;;4410601;32;20046;-53
2022/01/27 01:12:56;;;;;;;0.95;0.47;;;;;;;;;;4410960;32;20045;-54
2022/01/27 01:15:12;;;;;;;0.50;0.43;;;;;;;;;;4411945;32;20031;-55
2022/01/27 01:31:16;;;;;;;0.60;0.50;;;;;;;;;;4408536;32;20143;-55
2022/01/27 01:33:55;;;;;;;0.40;0.37;;;;;;;;;;4408560;32;20050;-54
2022/01/27 01:36:43;;;;;;;0.32;0.32;;;;;;;;;;4414736;32;20039;-53
2022/01/27 01:39:12;;;;;;;0.47;0.47;;;;;;;;;;4404788;32;20054;-54
2022/01/27 01:41:41;;;;;;;0.82;0.50;;;;;;;;;;4418758;32;20038;-52
2022/01/27 01:44:10;;;;;;;0.52;0.50;;;;;;;;;;4411483;32;20047;-53
2022/01/27 01:46:39;;;;;;;0.55;0.50;;;;;;;;;;4412281;32;20051;-53
2022/01/27 01:49:08;;;;;;;0.55;0.40;;;;;;;;;;4407511;32;20042;-51
2022/01/27 01:51:37;;;;;;;1.52;0.40;;;;;;;;;;4413309;32;20074;-55
2022/01/27 01:54:06;;;;;;;1.25;0.50;;;;;;;;;;4410663;32;20054;-51
2022/01/27 01:56:35;;;;;;;0.70;0.40;;;;;;;;;;4411557;32;20053;-52
2022/01/27 01:59:06;;;;;;;0.32;0.32;;;;;;;;;;4411327;32;20022;-55
2022/01/27 02:01:35;;;;;;;0.40;0.40;;;;;;;;;;4414428;32;20054;-53
2022/01/27 02:04:07;;;;;;;0.73;0.45;;;;;;;;;;4411853;32;20026;-52
2022/01/27 02:06:42;;;;;;;0.85;0.50;;;;;;;;;;4406957;32;20361;-51
2022/01/27 02:20:21;;;;;;;0.30;0.30;;;;;;;;;;4410671;32;20042;-54
2022/01/27 02:22:50;;;;;;;0.50;0.50;;;;;;;;;;4410773;32;20057;-55
2022/01/27 02:25:18;;;;;;;0.40;0.40;;;;;;;;;;4415263;32;20092;-55
2022/01/27 02:27:46;;;;;;;0.60;0.50;;;;;;;;;;4414188;32;20448;-55
2022/01/27 02:30:15;;;;;;;0.30;0.30;;;;;;;;;;4400902;32;20084;-55
2022/01/27 02:32:44;;;;;;;0.77;0.40;;;;;;;;;;4406867;32;20070;-52
2022/01/27 02:35:12;;;;;;;0.40;0.40;;;;;;;;;;4409578;32;20085;-55
2022/01/27 02:37:40;;;;;;;0.50;0.50;;;;;;;;;;4405297;32;20034;-53
2022/01/27 02:40:09;;;;;;;0.50;0.50;;;;;;;;;;4411748;32;20126;-55
2022/01/27 02:42:38;;;;;;;0.30;0.30;;;;;;;;;;4413846;32;20130;-55
2022/01/27 02:45:22;;;;;;;0.50;0.40;;;;;;;;;;4411105;32;20038;-53
2022/01/27 02:47:50;;;;;;;;;;;;;;;;;;4404211;32;20168;-53
2022/01/27 02:50:19;;;;;;;0.50;0.50;;;;;;;;;;4412069;32;20024;-52
2022/01/27 02:52:47;;;;;;;0.30;0.30;;;;;;;;;;4405325;32;21840;-52
2022/01/27 02:55:15;;;;;;;0.73;0.50;;;;;;;;;;4411805;32;20448;-53
2022/01/27 02:57:44;;;;;;;0.60;0.50;;;;;;;;;;4414623;32;20087;-55
2022/01/27 03:00:13;;;;;;;0.77;0.40;;;;;;;;;;4407469;32;20035;-53
2022/01/27 03:02:42;;;;;;;0.55;0.50;;;;;;;;;;4404210;32;20059;-55
2022/01/27 03:05:10;;;;;;;0.40;0.40;;;;;;;;;;4412884;32;20050;-54
2022/01/27 03:07:38;;;;;;;0.43;0.40;;;;;;;;;;4410123;32;20065;-52
2022/01/27 03:10:07;;;;;;;0.47;0.47;;;;;;;;;;4413556;32;20065;-54
2022/01/27 03:12:37;;;;;;;0.45;0.45;;;;;;;;;;4417269;32;20429;-52
2022/01/27 03:15:08;;;;;;;0.65;0.47;;;;;;;;;;4405060;32;20477;-54
2022/01/27 03:17:37;;;;;;;0.77;0.57;;;;;;;;;;4409648;32;20124;-53
2022/01/27 03:20:06;;;;;;;0.62;0.40;;;;;;;;;;4412999;32;20035;-51
2022/01/27 03:22:35;;;;;;;0.35;0.35;;;;;;;;;;4417048;32;20043;-52
2022/01/27 03:25:04;;;;;;;0.50;0.40;;;;;;;;;;4407960;32;20455;-51
2022/01/27 03:27:33;;;;;;;0.40;0.40;;;;;;;;;;4416180;32;20056;-55
2022/01/27 03:30:03;;;;;;;0.40;0.40;;;;;;;;;;4410649;32;20030;-54
2022/01/27 03:32:34;;;;;;;1.45;0.47;;;;;;;;;;4410942;32;20051;-53
2022/01/27 03:35:03;;;;;;;1.12;0.40;;;;;;;;;;4413986;32;20026;-56
2022/01/27 03:37:32;;;;;;;0.50;0.40;;;;;;;;;;4403192;32;20127;-55
2022/01/27 03:40:00;;;;;;;0.40;0.40;;;;;;;;;;4416923;32;22122;-52
2022/01/27 03:42:29;;;;;;;0.75;0.50;;;;;;;;;;4408564;32;20053;-55
2022/01/27 03:44:57;;;;;;;0.30;0.30;;;;;;;;;;4415317;32;20062;-56
2022/01/27 03:47:26;;;;;;;0.32;0.32;;;;;;;;;;4419080;32;20091;-53
2022/01/27 03:49:55;;;;;;;0.35;0.35;;;;;;;;;;4407005;32;20042;-55
2022/01/27 03:52:23;;;;;;;0.77;0.47;;;;;;;;;;4413118;32;20084;-52
2022/01/27 03:54:51;;;;;;;1.02;0.43;;;;;;;;;;4402142;32;20022;-54
2022/01/27 03:57:19;;;;;;;0.40;0.30;;;;;;;;;;4408312;32;20047;-56
2022/01/27 03:59:47;;;;;;;0.37;0.37;;;;;;;;;;4415507;32;20034;-54
2022/01/27 04:02:16;;;;;;;0.43;0.40;;;;;;;;;;4409020;32;20039;-56
2022/01/27 04:04:45;;;;;;;0.60;0.50;;;;;;;;;;4411048;32;20060;-55
2022/01/27 04:07:14;;;;;;;0.40;0.40;;;;;;;;;;4418911;32;20022;-52
2022/01/27 04:09:42;;;;;;;0.40;0.40;;;;;;;;;;4412212;32;20047;-53
2022/01/27 04:12:11;;;;;;;0.47;0.32;;;;;;;;;;4419162;32;20038;-50
2022/01/27 04:14:39;;;;;;;0.50;0.50;;;;;;;;;;4413874;32;20091;-52
2022/01/27 04:17:07;;;;;;;0.93;0.47;;;;;;;;;;4407636;32;20050;-52
2022/01/27 04:19:36;;;;;;;0.75;0.43;;;;;;;;;;4412147;32;20053;-50
2022/01/27 04:22:05;;;;;;;0.95;0.40;;;;;;;;;;4412857;32;20054;-53
2022/01/27 04:24:33;;;;;;;0.40;0.40;;;;;;;;;;4410606;32;20042;-52
2022/01/27 04:27:06;;;;;;;0.40;0.40;;;;;;;;;;4414691;32;20426;-52
2022/01/27 04:29:38;;;;;;;0.50;0.50;;;;;;;;;;4408550;32;20378;-51
2022/01/27 04:32:09;;;;;;;0.40;0.40;;;;;;;;;;4410544;32;20091;-53
2022/01/27 04:34:40;;;;;;;0.40;0.40;;;;;;;;;;4418100;32;20410;-53
2022/01/27 04:37:11;;;;;;;0.40;0.40;;;;;;;;;;4420189;32;20026;-53
2022/01/27 04:39:55;;;;;;;0.73;0.40;;;;;;;;;;4410851;32;20076;-53
2022/01/27 04:42:50;;;;;;;0.40;0.40;;;;;;;;;;4415810;32;20058;-50
2022/01/27 04:45:22;;;;;;;0.60;0.40;;;;;;;;;;4416321;32;20046;-50
2022/01/27 04:47:57;;;;;;;1.62;0.30;;;;;;;;;;4411956;32;20417;-53
2022/01/27 04:50:27;;;;;;;0.40;0.40;;;;;;;;;;4410800;32;20062;-51
2022/01/27 04:52:58;;;;;;;0.40;0.40;;;;;;;;;;4412460;32;20584;-52
2022/01/27 04:55:26;;;;;;;0.50;0.50;;;;;;;;;;4405827;32;20421;-51
2022/01/27 04:58:07;;;;;;;0.60;0.50;;;;;;;;;;4415183;32;20087;-53
2022/01/27 05:00:36;;;;;;;0.82;0.50;;;;;;;;;;4418046;32;20031;-52
2022/01/27 05:03:15;;;;;;;0.70;0.50;;;;;;;;;;4414594;32;20450;-52
2022/01/27 05:05:43;;;;;;;2.30;0.50;;;;;;;;;;4412868;32;20050;-55
2022/01/27 05:08:17;;;;;;;0.32;0.32;;;;;;;;;;4408888;32;20093;-55
2022/01/27 05:10:58;;;;;;;0.40;0.40;;;;;;;;;;4406687;32;20160;-52
2022/01/27 05:13:29;;;;;;;0.30;0.30;;;;;;;;;;4406826;32;20056;-53
2022/01/27 05:15:58;;;;;;;0.52;0.30;;;;;;;;;;4416606;32;20472;-53
2022/01/27 05:18:28;;;;;;;0.40;0.40;;;;;;;;;;4415708;32;20098;-54
2022/01/27 05:20:57;;;;;;;0.50;0.40;;;;;;;;;;4422943;32;20060;-55
2022/01/27 05:23:25;;;;;;;1.37;0.50;;;;;;;;;;4417900;32;20057;-54
2022/01/27 05:25:53;;;;;;;0.47;0.35;;;;;;;;;;4418491;32;20039;-55
2022/01/27 05:28:22;;;;;;;1.00;0.50;;;;;;;;;;4411429;32;20091;-54
2022/01/27 05:30:50;;;;;;;0.40;0.40;;;;;;;;;;4411031;32;20070;-51
2022/01/27 05:33:18;;;;;;;0.40;0.40;;;;;;;;;;4411320;32;20090;-51
2022/01/27 05:35:47;;;;;;;0.57;0.50;;;;;;;;;;4411024;32;20053;-55
2022/01/27 05:38:16;;;;;;;0.40;0.40;;;;;;;;;;4406997;32;20029;-51
2022/01/27 05:40:45;;;;;;;0.50;0.50;;;;;;;;;;4418851;32;20091;-55
2022/01/27 05:43:13;;;;;;;0.55;0.43;;;;;;;;;;4412605;32;20046;-51
2022/01/27 05:45:42;;;;;;;0.70;0.40;;;;;;;;;;4416181;32;20081;-55
2022/01/27 05:48:10;;;;;;;0.40;0.40;;;;;;;;;;4410308;32;21226;-55
2022/01/27 05:50:39;;;;;;;0.37;0.37;;;;;;;;;;4412705;32;20417;-54
2022/01/27 05:53:07;;;;;;;0.47;0.43;;;;;;;;;;4419808;32;20083;-55
2022/01/27 05:55:36;;;;;;;0.73;0.50;;;;;;;;;;4410255;32;20095;-53
2022/01/27 05:58:04;;;;;;;0.52;0.40;;;;;;;;;;4414842;32;20072;-52
2022/01/27 06:00:32;;;;;;;0.30;0.30;;;;;;;;;;4417014;32;20046;-53
2022/01/27 06:03:02;;;;;;;0.50;0.50;;;;;;;;;;4428456;32;20053;-54
2022/01/27 06:05:30;;;;;;;0.50;0.50;;;;;;;;;;4423086;32;20038;-52
2022/01/27 06:07:58;;;;;;;0.50;0.40;;;;;;;;;;4402102;32;20400;-54
2022/01/27 06:10:27;;;;;;;1.45;0.30;;;;;;;;;;4405776;32;20113;-54
2022/01/27 06:12:56;;;;;;;0.47;0.47;;;;;;;;;;4416458;32;20086;-54
2022/01/27 06:15:25;;;;;;;0.73;0.50;;;;;;;;;;4413102;32;20416;-54
2022/01/27 06:17:57;;;;;;;0.50;0.50;;;;;;;;;;4411505;32;20378;-54
2022/01/27 06:20:28;;;;;;;0.40;0.40;;;;;;;;;;4411258;32;20112;-54
2022/01/27 06:22:57;;;;;;;0.45;0.45;;;;;;;;;;4408595;32;20045;-53
2022/01/27 06:25:30;;;;;;;0.57;0.50;;;;;;;;;;4401876;32;20110;-52
2022/01/27 06:27:59;;;;;;;0.60;0.50;;;;;;;;;;4407735;32;20041;-53
2022/01/27 06:30:27;;;;;;;0.75;0.40;;;;;;;;;;4409625;32;20068;-52
2022/01/27 06:32:55;;;;;;;0.50;0.50;;;;;;;;;;4412961;32;20055;-54
2022/01/27 06:35:24;;;;;;;0.30;0.30;;;;;;;;;;4410074;32;20086;-53
2022/01/27 06:37:52;;;;;;;1.25;0.50;;;;;;;;;;4414574;32;20086;-52
2022/01/27 06:40:20;;;;;;;0.68;0.60;;;;;;;;;;4413407;32;20151;-54
2022/01/27 06:42:49;;;;;;;0.68;0.45;;;;;;;;;;4410653;32;20365;-53
2022/01/27 06:45:18;;;;;;;0.30;0.30;;;;;;;;;;4409044;32;20426;-53
2022/01/27 06:47:46;;;;;;;0.37;0.37;;;;;;;;;;4414067;32;20057;-54
2022/01/27 06:50:15;;;;;;;1.50;0.40;;;;;;;;;;4410695;32;20061;-54
2022/01/27 06:52:43;;;;;;;0.65;0.50;;;;;;;;;;4413348;32;20499;-55
2022/01/27 06:55:13;;;;;;;1.35;0.50;;;;;;;;;;4421226;32;20130;-53
2022/01/27 06:57:42;;;;;;;0.28;0.28;;;;;;;;;;4408187;32;20082;-51
2022/01/27 07:00:10;;;;;;;0.25;0.25;;;;;;;;;;4409854;32;20042;-54
2022/01/27 07:02:39;;;;;;;0.30;0.30;;;;;;;;;;4401126;32;20445;-53
2022/01/27 07:05:07;;;;;;;0.30;0.30;;;;;;;;;;4403478;32;20061;-53
2022/01/27 07:07:36;;;;;;;0.52;0.30;;;;;;;;;;4408153;32;20567;-54
2022/01/27 07:10:04;;;;;;;0.45;0.40;;;;;;;;;;4408286;32;20105;-54
2022/01/27 07:12:33;;;;;;;0.40;0.30;;;;;;;;;;4400470;32;20050;-54
2022/01/27 07:15:01;;;;;;;1.10;0.40;;;;;;;;;;4412572;32;20124;-53
2022/01/27 07:17:30;;;;;;;2.92;0.40;;;;;;;;;;4407711;32;20488;-51
2022/01/27 07:19:59;;;;;;;0.40;0.30;;;;;;;;;;4408799;32;20426;-55
2022/01/27 07:22:27;;;;;;;0.57;0.30;;;;;;;;;;4409379;32;20046;-52
2022/01/27 07:24:55;;;;;;;0.70;0.30;;;;;;;;;;4414081;32;20039;-53
2022/01/27 07:27:23;;;;;;;0.50;0.50;;;;;;;;;;4413830;32;20341;-51
2022/01/27 07:29:52;;;;;;;0.40;0.40;;;;;;;;;;4404224;32;20091;-51
2022/01/27 07:32:20;;;;;;;0.52;0.35;;;;;;;;;;4401414;32;20055;-53
2022/01/27 07:34:49;;;;;;;0.40;0.40;;;;;;;;;;4411548;32;20073;-51
2022/01/27 07:37:17;;;;;;;0.55;0.30;;;;;;;;;;4412241;32;20069;-52
2022/01/27 07:39:46;;;;;;;1.10;0.40;;;;;;;;;;4410660;32;20064;-55
2022/01/27 07:42:15;;;;;;;0.30;0.30;;;;;;;;;;4406855;32;20039;-54
2022/01/27 07:44:43;;;;;;;0.40;0.40;;;;;;;;;;4411941;32;20060;-55
2022/01/27 07:47:12;;;;;;;0.52;0.45;;;;;;;;;;4405746;32;20091;-51
2022/01/27 07:49:40;;;;;;;0.30;0.30;;;;;;;;;;4409507;32;20037;-51
2022/01/27 07:52:12;;;;;;;0.30;0.30;;;;;;;;;;4409020;32;20109;-53
2022/01/27 07:54:41;;;;;;;0.40;0.40;;;;;;;;;;4408889;32;20047;-51
2022/01/27 07:57:09;;;;;;;0.60;0.32;;;;;;;;;;4409841;32;20075;-54
2022/01/27 07:59:37;;;;;;;0.85;0.40;;;;;;;;;;4404952;32;20052;-51
2022/01/27 08:02:06;;;;;;;0.60;0.40;;;;;;;;;;4414834;32;20089;-53
2022/01/27 08:04:35;;;;;;;0.30;0.30;;;;;;;;;;4410521;32;20038;-53
2022/01/27 08:07:04;;;;;;;0.35;0.30;;;;;;;;;;4411590;32;20048;-54
2022/01/27 08:09:32;;;;;;;0.40;0.40;;;;;;;;;;4405115;32;20042;-51
2022/01/27 08:12:01;;;;;;;0.50;0.40;;;;;;;;;;4407832;32;20077;-53
2022/01/27 08:14:29;;;;;;;1.08;0.40;;;;;;;;;;4411754;32;20426;-54
2022/01/27 08:16:58;;;;;;;0.30;0.30;;;;;;;;;;4423372;32;20468;-52
2022/01/27 08:19:26;;;;;;;0.30;0.30;;;;;;;;;;4404647;32;20038;-51
2022/01/27 08:21:55;;;;;;;1.65;0.50;;;;;;;;;;4413783;32;20419;-51
2022/01/27 08:24:23;;;;;;;0.73;0.40;;;;;;;;;;4404685;32;20098;-51
2022/01/27 08:26:58;;;;;;;0.43;0.40;;;;;;;;;;4412707;32;20113;-51
2022/01/27 08:29:33;;;;;;;0.65;0.50;;;;;;;;;;4411758;32;20046;-54
2022/01/27 08:32:30;;;;;;;0.47;0.40;;;;;;;;;;4417002;32;20088;-51
2022/01/27 08:34:59;;;;;;;0.85;0.43;;;;;;;;;;4413018;32;20039;-51
2022/01/27 08:37:27;;;;;;;0.52;0.35;;;;;;;;;;4410044;32;20078;-52
2022/01/27 08:39:55;;;;;;;0.57;0.30;;;;;;;;;;4419460;32;20034;-53
2022/01/27 08:42:23;;;;;;;1.98;0.40;;;;;;;;;;4414289;32;20026;-51
2022/01/27 08:44:52;;;;;;;0.85;0.40;;;;;;;;;;4414736;32;20118;-51
2022/01/27 08:47:20;;;;;;;0.30;0.30;;;;;;;;;;4414977;32;20425;-53
2022/01/27 08:49:49;;;;;;;0.82;0.30;;;;;;;;;;4413003;32;20033;-50
2022/01/27 08:52:17;;;;;;;0.50;0.30;;;;;;;;;;4409132;32;20031;-52
2022/01/27 08:54:46;;;;;;;2.08;0.43;;;;;;;;;;4420891;32;20046;-54
2022/01/27 08:57:14;;;;;;;0.25;0.25;;;;;;;;;;4406377;32;20453;-54
2022/01/27 08:59:42;;;;;;;0.30;0.30;;;;;;;;;;4405226;32;20019;-54
2022/01/27 09:02:11;;;;;;;0.52;0.40;;;;;;;;;;4409537;32;20044;-54
2022/01/27 09:04:39;;;;;;;1.42;0.40;;;;;;;;;;4403761;32;20053;-54
2022/01/27 09:07:08;;;;;;;1.27;0.50;;;;;;;;;;4410499;32;20064;-53
2022/01/27 09:09:36;;;;;;;0.40;0.40;;;;;;;;;;4410962;32;20030;-53
2022/01/27 09:12:05;;;;;;;0.82;0.40;;;;;;;;;;4409119;32;20398;-53
2022/01/27 09:14:33;;;;;;;1.00;0.40;;;;;;;;;;4414951;32;20430;-51
2022/01/27 09:17:02;;;;;;;1.12;0.40;;;;;;;;;;4404589;32;20092;-54
2022/01/27 09:19:31;;;;;;;0.73;0.40;;;;;;;;;;4402616;32;20407;-53
2022/01/27 09:22:00;;;;;;;0.30;0.30;;;;;;;;;;4414982;32;20090;-52
2022/01/27 09:24:37;;;;;;;0.62;0.30;;;;;;;;;;4414781;32;20034;-51
2022/01/27 09:27:06;;;;;;;1.17;0.30;;;;;;;;;;4408104;32;20043;-55
2022/01/27 09:29:35;;;;;;;0.50;0.30;;;;;;;;;;4412149;32;20317;-51
2022/01/27 09:32:05;;;;;;;0.35;0.30;;;;;;;;;;4412540;32;20091;-54
2022/01/27 09:34:34;;;;;;;0.40;0.37;;;;;;;;;;4411280;32;20050;-53
2022/01/27 09:37:03;;;;;;;0.45;0.30;;;;;;;;;;4404418;32;20082;-52
2022/01/27 09:39:32;;;;;;;0.30;0.30;;;;;;;;;;4407366;32;20049;-52
2022/01/27 09:42:01;;;;;;;0.77;0.40;;;;;;;;;;4412298;32;20385;-52
2022/01/27 09:44:32;;;;;;;1.48;0.40;;;;;;;;;;4414222;32;20500;-54
2022/01/27 09:47:03;;;;;;;0.32;0.30;;;;;;;;;;4405478;32;20153;-51
2022/01/27 09:52:04;;;;;;;1.08;0.40;;;;;;;;;;4413460;32;20070;-52
2022/01/27 09:54:33;;;;;;;0.50;0.40;;;;;;;;;;4404064;32;22677;-55
2022/01/27 09:57:03;;;;;;;0.50;0.50;;;;;;;;;;4289208;32;20084;-54
2022/01/27 09:59:32;;;;;;;1.52;0.50;;;;;;;;;;4339116;32;20080;-55
2022/01/27 10:02:05;;;;;;;0.70;0.37;;;;;;;;;;4282072;32;20078;-53
2022/01/27 10:04:42;;;;;;;0.50;0.50;;;;;;;;;;4382845;32;20102;-52
2022/01/27 10:07:15;;;;;;;0.60;0.40;;;;;;;;;;4382488;32;20043;-52
2022/01/27 10:10:02;;;;;;;0.32;0.32;;;;;;;;;;4375234;32;20066;-55
2022/01/27 10:12:37;;;;;;;1.12;0.40;;;;;;;;;;4379741;32;20395;-54
2022/01/27 10:15:10;;;;;;;1.05;0.40;;;;;;;;;;4384069;32;20359;-53
2022/01/27 10:17:40;;;;;;;0.62;0.40;;;;;;;;;;4374995;32;20144;-55
2022/01/27 10:20:16;;;;;;;0.70;0.40;;;;;;;;;;4388013;32;20137;-54
2022/01/27 10:23:03;;;;;;;0.95;0.40;;;;;;;;;;4385304;32;20343;-55
2022/01/27 10:25:36;;;;;;;1.12;0.32;;;;;;;;;;4383236;32;20055;-52
2022/01/27 10:28:22;;;;;;;0.55;0.43;;;;;;;;;;4378127;32;20059;-53
2022/01/27 10:31:19;;;;;;;0.95;0.50;;;;;;;;;;4375417;32;20034;-55
2022/01/27 10:34:04;;;;;;;0.70;0.40;;;;;;;;;;4380528;32;20042;-54
2022/01/27 10:36:44;;;;;;;0.50;0.50;;;;;;;;;;4386864;32;20031;-51
2022/01/27 10:39:15;;;;;;;0.40;0.40;;;;;;;;;;4378498;32;20094;-54
2022/01/27 10:42:05;;;;;;;1.20;0.50;;;;;;;;;;4370749;32;20065;-54
2022/01/27 10:44:43;;;;;;;0.82;0.50;;;;;;;;;;4375615;32;20079;-52
2022/01/27 10:47:22;;;;;;;0.60;0.40;;;;;;;;;;4369203;32;20110;-54
2022/01/27 10:49:57;;;;;;;0.52;0.50;;;;;;;;;;4375896;32;20073;-53
2022/01/27 10:52:52;;;;;;;0.68;0.43;;;;;;;;;;4373209;32;20155;-54
2022/01/27 10:55:17;;;;;;;2.35;0.68;;;;;;;;;;4378693;32;20060;-52
2022/01/27 10:57:50;;;;;;;2.62;0.50;;;;;;;;;;4388693;32;20365;-55
2022/01/27 11:00:20;;;;;;;0.85;0.43;;;;;;;;;;4384799;32;20080;-55
2022/01/27 11:02:53;;;;;;;1.10;0.60;;;;;;;;;;4383330;32;20049;-53
2022/01/27 11:05:23;;;;;;;4.12;0.50;;;;;;;;;;4381037;32;20499;-53
2022/01/27 11:07:52;;;;;;;2.58;0.70;;;;;;;;;;4379483;32;20031;-54
2022/01/27 11:10:26;;;;;;;1.30;0.43;;;;;;;;;;4376746;32;20059;-52
2022/01/27 11:12:56;;;;;;;0.80;0.40;;;;;;;;;;4369348;32;20047;-53
2022/01/27 11:15:25;;;;;;;1.70;0.47;;;;;;;;;;4371223;32;20468;-52
2022/01/27 11:17:55;;;;;;;2.58;0.60;;;;;;;;;;4377280;32;20026;-52
2022/01/27 11:26:09;;;;;;;4.53;0.80;;;;;;;;;;4383840;32;20076;-51
2022/01/27 11:28:42;;;;;;;1.90;0.50;;;;;;;;;;4378975;32;20155;-51
2022/01/27 11:31:17;;;;;;;3.70;0.70;;;;;;;;;;4377931;32;20035;-54
2022/01/27 11:33:58;;;;;;;1.95;0.70;;;;;;;;;;4384425;32;20095;-50
2022/01/27 11:36:26;;;;;;;4.30;0.60;;;;;;;;;;4376287;32;20370;-61
2022/01/27 11:38:55;;;;;;;6.40;0.88;;;;;;;;;;4371744;32;20026;-53
2022/01/27 11:41:56;;;;;;;7.55;1.02;;;;;;;;;;4379960;32;20046;-50
2022/01/27 11:44:31;;;;;;;5.15;0.98;;;;;;;;;;4369003;32;20441;-52
2022/01/27 11:47:18;;;;;;;8.88;1.10;;;;;;;;;;4380069;32;20062;-51
2022/01/27 11:49:54;;;;;;;6.07;0.85;;;;;;;;;;4375998;32;20058;-54
2022/01/27 11:52:23;;;;;;;5.25;0.90;;;;;;;;;;4380932;32;20031;-53
2022/01/27 11:54:52;;;;;;;4.55;0.70;;;;;;;;;;4380876;32;20419;-51
2022/01/27 11:57:46;;;;;;;5.43;1.00;;;;;;;;;;4383315;32;20058;-52
2022/01/27 12:00:20;;;;;;;3.85;0.93;;;;;;;;;;4384190;32;20045;-53
2022/01/27 12:03:05;;;;;;;4.15;0.88;;;;;;;;;;4389015;32;20062;-54
2022/01/27 12:05:39;;;;;;;4.22;0.60;;;;;;;;;;4383235;32;20078;-52
2022/01/27 12:08:14;;;;;;;3.58;0.80;;;;;;;;;;4387396;32;20089;-53
2022/01/27 12:10:55;;;;;;;7.28;0.85;;;;;;;;;;4382031;32;20109;-51
2022/01/27 12:13:36;;;;;;;4.43;0.93;;;;;;;;;;4385838;32;20087;-52
2022/01/27 12:16:26;;;;;;;1.55;0.70;;;;;;;;;;4373622;32;20042;-53
2022/01/27 12:19:04;;;;;;;4.80;0.70;;;;;;;;;;4378866;32;20138;-51
2022/01/27 12:21:45;;;;;;;3.45;0.73;;;;;;;;;;4383251;32;20035;-53
2022/01/27 12:24:16;;;;;;;3.15;0.62;;;;;;;;;;4382258;32;20038;-51
2022/01/27 12:26:44;;;;;;;2.25;0.70;;;;;;;;;;4384408;32;20054;-51
2022/01/27 12:29:21;;;;;;;3.65;0.70;;;;;;;;;;4381013;32;20116;-52
2022/01/27 12:31:50;;;;;;;3.35;0.60;;;;;;;;;;4379553;32;20040;-54
2022/01/27 12:34:18;;;;;;;2.33;0.90;;;;;;;;;;4381835;32;20072;-51
2022/01/27 12:36:56;;;;;;;6.72;0.62;;;;;;;;;;4389226;32;20034;-53
2022/01/27 12:39:26;;;;;;;4.70;0.93;;;;;;;;;;4387914;32;20061;-53
2022/01/27 12:41:55;;;;;;;2.80;0.70;;;;;;;;;;4386024;32;20053;-51
2022/01/27 12:44:26;;;;;;;1.77;0.75;;;;;;;;;;4374249;32;20556;-50
2022/01/27 12:47:15;;;;;;;1.70;0.47;;;;;;;;;;4377951;32;20397;-51
2022/01/27 12:49:48;;;;;;;1.45;0.65;;;;;;;;;;4375644;32;20039;-52
2022/01/27 12:52:21;;;;;;;4.53;0.90;;;;;;;;;;4377734;32;20043;-53
2022/01/27 12:54:52;;;;;;;2.50;0.60;;;;;;;;;;4380292;32;20425;-52
2022/01/27 12:57:41;;;;;;;5.25;0.75;;;;;;;;;;4373460;32;20100;-50
2022/01/27 13:00:13;;;;;;;4.72;0.90;;;;;;;;;;4383230;32;20069;-52
2022/01/27 13:02:42;;;;;;;4.68;0.82;;;;;;;;;;4383262;32;20076;-52
2022/01/27 13:05:10;;;;;;;3.50;0.90;;;;;;;;;;4378922;32;20060;-51
2022/01/27 13:07:42;;;;;;;3.78;0.62;;;;;;;;;;4383508;32;20443;-54
2022/01/27 13:10:15;;;;;;;1.75;0.70;;;;;;;;;;4386041;32;20077;-51
2022/01/27 13:12:51;;;;;;;1.95;0.50;;;;;;;;;;4378080;32;20087;-54
2022/01/27 13:15:22;;;;;;;3.55;0.62;;;;;;;;;;4383845;32;20071;-53
2022/01/27 13:17:56;;;;;;;0.93;0.60;;;;;;;;;;4384288;32;20047;-54
2022/01/27 13:26:00;;;;;;;1.73;0.52;;;;;;;;;;4377285;32;20370;-55
2022/01/27 13:28:34;;;;;;;1.27;0.60;;;;;;;;;;4372851;32;20066;-51
2022/01/27 13:31:08;;;;;;;3.35;0.80;;;;;;;;;;4382722;32;20077;-50
2022/01/27 13:33:39;;;;;;;3.53;0.73;;;;;;;;;;4383655;32;20053;-55
2022/01/27 13:36:07;;;;;;;3.20;0.60;;;;;;;;;;4377245;32;20411;-51
2022/01/27 13:38:51;;;;;;;1.55;0.77;;;;;;;;;;4377707;32;20043;-51
2022/01/27 13:41:20;;;;;;;2.03;0.75;;;;;;;;;;4379546;32;20039;-54
2022/01/27 13:43:50;;;;;;;4.18;0.70;;;;;;;;;;4357605;32;20355;-51
2022/01/27 13:46:33;;;;;;;2.20;0.55;;;;;;;;;;4373734;32;20077;-54
2022/01/27 13:49:07;;;;;;;3.60;0.60;;;;;;;;;;4379891;32;20065;-53
2022/01/27 13:51:46;;;;;;;3.42;0.70;;;;;;;;;;4379926;32;20111;-51
2022/01/27 13:54:14;;;;;;;2.62;0.68;;;;;;;;;;4386032;32;20047;-54
2022/01/27 13:56:47;;;;;;;1.92;0.60;;;;;;;;;;4378174;32;20039;-51
2022/01/27 13:59:18;;;;;;;1.83;0.50;;;;;;;;;;4378797;32;20111;-51
2022/01/27 14:01:46;;;;;;;3.15;0.62;;;;;;;;;;4383973;32;20042;-52
2022/01/27 14:04:15;;;;;;;3.40;0.50;;;;;;;;;;4386158;32;20063;-51
2022/01/27 14:06:56;;;;;;;1.08;0.40;;;;;;;;;;4384232;32;20429;-53
2022/01/27 14:09:29;;;;;;;2.08;0.50;;;;;;;;;;4382264;32;20051;-51
2022/01/27 14:12:05;;;;;;;1.73;0.50;;;;;;;;;;4388487;32;20112;-53
2022/01/27 14:14:50;;;;;;;2.05;0.65;;;;;;;;;;4374822;32;20153;-50
2022/01/27 14:17:18;;;;;;;;;;;;;;;;;;4384983;32;20069;-52
2022/01/27 14:19:47;;;;;;;1.95;0.60;;;;;;;;;;4380539;32;19946;-53
2022/01/27 14:22:20;;;;;;;2.90;0.70;;;;;;;;;;4375864;32;20043;-52
2022/01/27 14:25:03;;;;;;;3.62;0.70;;;;;;;;;;4379784;32;20039;-50
2022/01/27 14:27:32;;;;;;;1.62;0.60;;;;;;;;;;4374658;32;20057;-54
2022/01/27 14:30:01;;;;;;;2.83;0.52;;;;;;;;;;4383882;32;20050;-52
2022/01/27 14:32:31;;;;;;;2.15;0.65;;;;;;;;;;4379221;32;20051;-54
2022/01/27 14:34:59;;;;;;;3.28;0.70;;;;;;;;;;4381277;32;20094;-51
2022/01/27 14:37:28;;;;;;;1.00;0.50;;;;;;;;;;4379453;32;20027;-51
2022/01/27 14:39:57;;;;;;;0.52;0.50;;;;;;;;;;4376725;32;20039;-54
2022/01/27 14:42:26;;;;;;;4.25;0.70;;;;;;;;;;4375258;32;20023;-52
2022/01/27 14:44:55;;;;;;;4.82;1.02;;;;;;;;;;4380243;32;20102;-52
2022/01/27 14:47:23;;;;;;;3.75;0.85;;;;;;;;;;4382051;32;20051;-50
2022/01/27 14:49:53;;;;;;;2.15;0.75;;;;;;;;;;4386375;32;20047;-52
2022/01/27 14:52:26;;;;;;;2.08;0.75;;;;;;;;;;4375162;32;20065;-52
2022/01/27 14:54:55;;;;;;;1.37;0.60;;;;;;;;;;4383719;32;20104;-53
2022/01/27 14:57:38;;;;;;;0.52;0.37;;;;;;;;;;4375135;32;20440;-55
2022/01/27 15:00:07;;;;;;;2.33;1.00;;;;;;;;;;4378888;32;20039;-54
2022/01/27 15:02:37;;;;;;;3.28;0.60;;;;;;;;;;4382383;32;20065;-55
2022/01/27 15:05:06;;;;;;;2.22;0.57;;;;;;;;;;4374506;32;20034;-51
2022/01/27 15:07:37;;;;;;;0.77;0.60;;;;;;;;;;4382524;32;20366;-55
2022/01/27 15:10:09;;;;;;;0.68;0.40;;;;;;;;;;4379468;32;20077;-51
2022/01/27 15:12:39;;;;;;;0.60;0.40;;;;;;;;;;4380517;32;20051;-52
2022/01/27 15:20:43;;;;;;;1.25;0.60;;;;;;;;;;4385531;32;20058;-51
2022/01/27 15:23:16;;;;;;;1.37;0.62;;;;;;;;;;4387016;32;20096;-53
2022/01/27 15:25:47;;;;;;;3.10;0.90;;;;;;;;;;4384066;32;20540;-53
2022/01/27 15:28:16;;;;;;;1.75;0.60;;;;;;;;;;4380790;32;20053;-52
2022/01/27 15:30:45;;;;;;;3.25;0.68;;;;;;;;;;4383074;32;20442;-50
2022/01/27 15:33:14;;;;;;;1.80;0.60;;;;;;;;;;4377641;32;20114;-54
2022/01/27 15:35:44;;;;;;;0.88;0.50;;;;;;;;;;4379396;32;20050;-51
2022/01/27 15:38:13;;;;;;;1.98;0.57;;;;;;;;;;4385096;32;20072;-51
2022/01/27 15:40:45;;;;;;;1.95;0.50;;;;;;;;;;4390066;32;20434;-52
2022/01/27 15:43:14;;;;;;;1.77;0.55;;;;;;;;;;4382670;32;20101;-52
2022/01/27 15:45:42;;;;;;;1.05;0.60;;;;;;;;;;4385516;32;20043;-52
2022/01/27 15:48:10;;;;;;;0.90;0.50;;;;;;;;;;4385809;32;20398;-53
2022/01/27 15:50:39;;;;;;;2.00;0.80;;;;;;;;;;4383721;32;20039;-50
2022/01/27 15:53:09;;;;;;;1.60;0.50;;;;;;;;;;4373510;32;20061;-51
2022/01/27 15:55:38;;;;;;;4.03;0.50;;;;;;;;;;4385899;32;20043;-51
2022/01/27 15:58:07;;;;;;;1.45;0.50;;;;;;;;;;4375837;32;20090;-50